Time;durP1;ratioP1;P1;durP2;ratioP2;P2;SDS_P1;SDS_P2;PMS_P1;PMS_P2;Temp;Humidity;BMP_temperature;BMP_pressure;BME280_temperature;BME280_humidity;BME280_pressure;Samples;Min_cycle;Max_cycle;Signal;HPM_P1;HPM_P2
2022/03/02 00:00:58;;;;;;;73.60;27.63;;;;;;;-2.84;68.56;101365.63;4195411;28;22825;-68
2022/03/02 00:03:24;;;;;;;75.40;26.90;;;;;;;-2.87;68.31;101363.13;4200475;28;20224;-69
2022/03/02 00:05:51;;;;;;;80.70;29.27;;;;;;;-2.91;68.49;101358.84;4189957;28;20288;-69
2022/03/02 00:08:17;;;;;;;89.10;31.07;;;;;;;-2.94;68.78;101366.75;4195187;28;20417;-67
2022/03/02 00:10:44;;;;;;;81.87;29.20;;;;;;;-2.89;69.05;101367.50;4206753;28;20233;-67
2022/03/02 00:13:10;;;;;;;83.80;30.13;;;;;;;-2.96;68.97;101358.97;4193193;28;20256;-66
2022/03/02 00:15:37;;;;;;;89.50;31.00;;;;;;;-2.85;68.47;101362.19;4188942;28;20678;-67
2022/03/02 00:18:04;;;;;;;99.40;31.30;;;;;;;-2.85;68.80;101359.56;4210113;28;20303;-67
2022/03/02 00:20:30;;;;;;;79.60;30.67;;;;;;;-2.83;68.75;101355.19;4194149;28;20236;-67
2022/03/02 00:22:57;;;;;;;72.90;28.17;;;;;;;-2.84;68.66;101355.22;4231527;28;21259;-68
2022/03/02 00:25:23;;;;;;;71.40;26.50;;;;;;;-2.90;68.70;101350.13;4192570;28;25710;-68
2022/03/02 00:27:50;;;;;;;72.73;30.00;;;;;;;-2.94;68.82;101353.72;4196874;28;20264;-69
2022/03/02 00:30:16;;;;;;;80.77;28.80;;;;;;;-2.90;68.26;101357.94;4191348;28;20674;-68
2022/03/02 00:32:43;;;;;;;82.67;28.77;;;;;;;-2.99;68.32;101354.69;4210377;28;20360;-69
2022/03/02 00:35:10;;;;;;;71.87;25.90;;;;;;;-3.11;68.66;101349.78;4197082;28;21230;-68
2022/03/02 00:37:36;;;;;;;72.43;26.23;;;;;;;-3.28;69.94;101346.69;4208916;28;20302;-69
2022/03/02 00:40:03;;;;;;;72.47;26.27;;;;;;;-3.27;70.60;101343.22;4210509;28;20232;-70
2022/03/02 00:42:30;;;;;;;71.93;26.40;;;;;;;-3.28;70.14;101344.97;4210878;28;23773;-68
2022/03/02 00:44:57;;;;;;;73.70;26.43;;;;;;;-3.34;70.56;101344.25;4205345;28;21225;-70
2022/03/02 00:47:24;;;;;;;84.67;28.83;;;;;;;-3.33;70.86;101345.94;4200322;28;20240;-71
2022/03/02 00:49:51;;;;;;;80.97;27.23;;;;;;;-3.42;71.41;101339.19;4200945;28;20424;-68
2022/03/02 00:52:17;;;;;;;78.37;27.57;;;;;;;-3.53;71.71;101336.84;4196892;28;20237;-69
2022/03/02 00:54:44;;;;;;;75.73;27.40;;;;;;;-3.52;71.84;101333.31;4190978;28;20536;-68
2022/03/02 00:57:10;;;;;;;85.37;27.07;;;;;;;-3.52;72.29;101335.06;4192446;28;21351;-70
2022/03/02 00:59:38;;;;;;;80.80;29.23;;;;;;;-3.55;71.84;101333.41;4192740;28;21226;-68
2022/03/02 01:02:04;;;;;;;81.43;29.40;;;;;;;-3.64;72.40;101333.59;4198087;28;20230;-68
2022/03/02 01:04:31;;;;;;;76.47;29.37;;;;;;;-3.74;72.96;101332.94;4194156;28;20248;-69
2022/03/02 01:06:58;;;;;;;85.80;29.93;;;;;;;-3.75;73.32;101322.56;4196606;28;21782;-69
2022/03/02 01:09:24;;;;;;;74.13;28.17;;;;;;;-3.68;72.48;101326.75;4207052;28;20333;-68
2022/03/02 01:11:51;;;;;;;74.83;28.10;;;;;;;-3.64;72.42;101325.78;4200947;28;20531;-68
2022/03/02 01:14:17;;;;;;;79.50;29.10;;;;;;;-3.66;71.97;101323.22;4200218;28;23810;-68
2022/03/02 01:16:44;;;;;;;85.07;29.13;;;;;;;-3.68;72.60;101317.19;4199151;28;20326;-69
2022/03/02 01:19:11;;;;;;;78.67;29.03;;;;;;;-3.75;72.96;101325.16;4201161;28;20386;-70
2022/03/02 01:21:37;;;;;;;83.93;28.67;;;;;;;-3.86;73.47;101318.44;4201903;28;20241;-68
2022/03/02 01:24:04;;;;;;;80.97;27.33;;;;;;;-3.78;73.18;101325.22;4192465;28;20608;-69
2022/03/02 01:26:31;;;;;;;77.67;28.13;;;;;;;-3.82;73.04;101314.91;4200130;28;24418;-68
2022/03/02 01:28:58;;;;;;;76.33;27.87;;;;;;;-3.85;73.22;101314.09;4205512;28;21028;-69
2022/03/02 01:31:26;;;;;;;76.60;27.13;;;;;;;-3.94;73.54;101309.94;4188595;28;22874;-69
2022/03/02 01:33:53;;;;;;;71.47;26.83;;;;;;;-4.07;73.75;101308.50;4188808;28;20236;-70
2022/03/02 01:36:20;;;;;;;63.87;25.67;;;;;;;-4.10;73.92;101308.53;4197440;28;20228;-68
2022/03/02 01:38:48;;;;;;;68.10;26.00;;;;;;;-3.98;73.65;101305.72;4197047;28;21642;-69
2022/03/02 01:41:16;;;;;;;67.03;25.77;;;;;;;-4.11;73.72;101312.03;4179799;28;20233;-69
2022/03/02 01:43:44;;;;;;;75.67;27.10;;;;;;;-4.24;74.54;101303.59;4181521;28;21074;-69
2022/03/02 01:46:12;;;;;;;74.13;27.00;;;;;;;-4.26;74.52;101293.25;4187354;28;20429;-69
2022/03/02 01:48:40;;;;;;;79.33;27.43;;;;;;;-4.31;74.71;101299.41;4179931;28;20723;-69
2022/03/02 01:51:06;;;;;;;77.57;26.77;;;;;;;-4.29;74.32;101301.09;4193716;28;20296;-69
2022/03/02 01:53:33;;;;;;;72.83;26.53;;;;;;;-4.35;75.20;101288.22;4193731;28;20246;-70
2022/03/02 01:55:59;;;;;;;71.00;27.10;;;;;;;-4.29;74.91;101295.88;4188908;28;23979;-69
2022/03/02 01:58:27;;;;;;;72.73;25.33;;;;;;;-4.40;74.85;101284.88;4184288;28;21996;-69
2022/03/02 02:00:54;;;;;;;73.37;27.27;;;;;;;-4.45;75.24;101281.47;4196454;28;20243;-68
2022/03/02 02:03:21;;;;;;;68.30;25.67;;;;;;;-4.42;75.41;101281.44;4196328;28;22415;-68
2022/03/02 02:05:48;;;;;;;74.60;27.40;;;;;;;-4.53;75.46;101278.19;4198797;28;20243;-69
2022/03/02 02:08:14;;;;;;;78.90;26.93;;;;;;;-4.52;75.56;101275.56;4214157;28;20319;-69
2022/03/02 02:10:41;;;;;;;75.47;27.40;;;;;;;-4.52;75.80;101278.16;4180824;28;25225;-69
2022/03/02 02:13:08;;;;;;;79.07;26.70;;;;;;;-4.52;75.96;101272.09;4196639;28;20250;-70
2022/03/02 02:15:34;;;;;;;74.93;27.33;;;;;;;-4.39;75.27;101270.97;4193353;28;20234;-68
2022/03/02 02:18:02;;;;;;;77.47;27.23;;;;;;;-4.43;75.23;101268.47;4210751;28;21705;-70
2022/03/02 02:20:32;;;;;;;77.83;26.47;;;;;;;-4.49;75.68;101265.09;4193750;28;20342;-69
2022/03/02 02:22:59;;;;;;;75.43;26.37;;;;;;;-4.63;76.30;101256.72;4198495;28;21375;-69
2022/03/02 02:25:25;;;;;;;71.97;25.67;;;;;;;-4.60;76.29;101256.66;4191950;28;20316;-69
2022/03/02 02:27:52;;;;;;;84.13;26.47;;;;;;;-4.51;75.88;101256.47;4196816;28;20244;-68
2022/03/02 02:30:19;;;;;;;71.93;26.20;;;;;;;-4.52;76.07;101252.19;4192312;28;21008;-70
2022/03/02 02:32:45;;;;;;;80.13;28.13;;;;;;;-4.39;75.44;101260.59;4188057;28;20249;-69
2022/03/02 02:35:12;;;;;;;72.43;26.53;;;;;;;-4.53;76.06;101250.47;4199632;28;21402;-68
2022/03/02 02:37:39;;;;;;;72.50;25.93;;;;;;;-4.49;76.32;101248.69;4200874;28;21402;-70
2022/03/02 02:40:09;;;;;;;69.00;26.37;;;;;;;-4.28;75.25;101253.44;4195812;28;20281;-70
2022/03/02 02:42:36;;;;;;;74.83;27.00;;;;;;;-4.15;74.35;101248.00;4179284;28;20251;-68
2022/03/02 02:45:04;;;;;;;75.27;26.40;;;;;;;-4.27;74.26;101249.94;4183827;28;20341;-68
2022/03/02 02:47:30;;;;;;;79.03;27.13;;;;;;;-4.36;74.50;101249.28;4193339;28;20221;-68
2022/03/02 02:49:57;;;;;;;72.80;26.23;;;;;;;-4.46;75.04;101246.00;4215779;28;20228;-69
2022/03/02 02:52:24;;;;;;;86.07;27.83;;;;;;;-4.42;75.37;101250.25;4200482;28;20789;-68
2022/03/02 02:54:50;;;;;;;78.03;27.73;;;;;;;-4.40;75.42;101242.41;4192170;28;20229;-69
2022/03/02 02:57:17;;;;;;;77.67;26.57;;;;;;;-4.42;75.20;101250.25;4205606;28;21045;-70
2022/03/02 02:59:44;;;;;;;77.13;28.10;;;;;;;-4.43;75.12;101245.09;4189685;28;21881;-68
2022/03/02 03:02:10;;;;;;;68.10;26.63;;;;;;;-4.45;75.63;101245.09;4192497;28;22274;-68
2022/03/02 03:04:37;;;;;;;74.47;26.73;;;;;;;-4.51;76.29;101245.25;4189594;28;20242;-69
2022/03/02 03:07:03;;;;;;;73.30;26.53;;;;;;;-4.46;76.06;101244.25;4187347;28;20234;-69
2022/03/02 03:09:32;;;;;;;81.57;27.20;;;;;;;-4.54;76.35;101240.97;4194757;28;20237;-69
2022/03/02 03:11:59;;;;;;;79.17;25.57;;;;;;;-4.37;76.16;101243.22;4208396;28;21546;-69
2022/03/02 03:14:25;;;;;;;78.20;27.07;;;;;;;-4.29;75.22;101236.13;4189474;28;20232;-69
2022/03/02 03:16:52;;;;;;;72.57;25.33;;;;;;;-4.27;75.36;101236.94;4191756;28;20271;-68
2022/03/02 03:19:19;;;;;;;75.23;26.00;;;;;;;-4.31;75.09;101231.84;4190738;28;20338;-68
2022/03/02 03:21:45;;;;;;;72.10;26.60;;;;;;;-4.31;75.37;101237.03;4193026;28;20311;-68
2022/03/02 03:24:12;;;;;;;70.47;25.83;;;;;;;-4.39;75.15;101228.56;4196396;28;20449;-69
2022/03/02 03:26:38;;;;;;;83.50;27.30;;;;;;;-4.65;76.20;101229.06;4190010;28;20237;-69
2022/03/02 03:29:05;;;;;;;76.00;26.03;;;;;;;-4.59;76.09;101226.34;4194213;28;20241;-68
2022/03/02 03:31:31;;;;;;;75.87;25.57;;;;;;;-4.61;75.79;101220.31;4196745;28;20295;-68
2022/03/02 03:33:58;;;;;;;69.47;25.47;;;;;;;-4.78;76.92;101218.91;4210212;28;20239;-68
2022/03/02 03:36:24;;;;;;;73.40;26.67;;;;;;;-4.74;77.41;101217.13;4190374;28;20237;-68
2022/03/02 03:38:51;;;;;;;74.93;26.23;;;;;;;-4.58;76.59;101212.50;4195077;28;20969;-70
2022/03/02 03:41:18;;;;;;;76.80;26.90;;;;;;;-4.55;76.44;101217.63;4191826;28;20255;-69
2022/03/02 03:43:44;;;;;;;72.70;26.27;;;;;;;-4.49;76.13;101212.31;4195968;28;20236;-69
2022/03/02 03:46:11;;;;;;;80.57;25.60;;;;;;;-4.40;75.83;101212.13;4197635;28;20237;-69
2022/03/02 03:48:38;;;;;;;75.83;26.80;;;;;;;-4.53;75.94;101206.31;4201935;28;22821;-69
2022/03/02 03:51:04;;;;;;;79.53;27.50;;;;;;;-4.75;76.93;101205.03;4194151;28;20291;-68
2022/03/02 03:53:31;;;;;;;77.70;27.07;;;;;;;-4.64;76.93;101204.81;4198461;28;20241;-67
2022/03/02 03:55:57;;;;;;;71.97;26.60;;;;;;;-4.67;77.01;101203.13;4195558;28;23376;-69
2022/03/02 03:58:24;;;;;;;76.77;26.97;;;;;;;-4.53;76.17;101206.31;4193217;28;22366;-68
2022/03/02 04:00:50;;;;;;;79.80;26.70;;;;;;;-4.49;76.07;101201.91;4180967;28;20617;-68
2022/03/02 04:03:17;;;;;;;75.87;27.23;;;;;;;-4.46;76.11;101201.84;4189597;28;20225;-70
2022/03/02 04:05:44;;;;;;;74.30;26.77;;;;;;;-4.48;76.15;101198.44;4192993;28;20514;-69
2022/03/02 04:08:11;;;;;;;75.03;27.47;;;;;;;-4.43;75.75;101195.72;4203203;28;20289;-68
2022/03/02 04:10:38;;;;;;;78.00;26.50;;;;;;;-4.45;76.02;101190.56;4207212;28;20240;-69
2022/03/02 04:13:04;;;;;;;79.23;26.53;;;;;;;-4.49;76.25;101189.78;4197723;28;20246;-69
2022/03/02 04:15:31;;;;;;;84.80;27.50;;;;;;;-4.52;76.23;101187.25;4198847;28;20234;-70
2022/03/02 04:17:58;;;;;;;87.60;28.13;;;;;;;-4.58;76.82;101186.53;4178157;28;20328;-70
2022/03/02 04:20:24;;;;;;;74.33;26.97;;;;;;;-4.62;77.18;101187.47;4200904;28;20288;-69
2022/03/02 04:22:51;;;;;;;79.40;27.67;;;;;;;-4.73;77.31;101187.66;4210693;28;20248;-69
2022/03/02 04:25:17;;;;;;;83.13;27.23;;;;;;;-4.65;77.49;101192.72;4189336;28;20360;-69
2022/03/02 04:27:44;;;;;;;80.73;26.77;;;;;;;-4.57;76.96;101183.03;4194266;28;20256;-69
2022/03/02 04:30:11;;;;;;;81.30;26.83;;;;;;;-4.58;76.77;101186.53;4206208;28;20232;-69
2022/03/02 04:32:38;;;;;;;77.13;26.03;;;;;;;-4.65;76.97;101190.13;4185268;28;20299;-70
2022/03/02 04:35:06;;;;;;;81.17;27.07;;;;;;;-4.59;77.16;101188.28;4195929;28;22528;-69
2022/03/02 04:37:32;;;;;;;82.47;27.80;;;;;;;-4.70;77.37;101188.47;4209140;28;20238;-68
2022/03/02 04:39:59;;;;;;;76.77;26.77;;;;;;;-4.74;77.71;101185.97;4214103;28;20297;-67
2022/03/02 04:42:25;;;;;;;78.30;28.03;;;;;;;-4.75;77.91;101186.84;4194864;28;20313;-69
2022/03/02 04:44:52;;;;;;;79.20;27.20;;;;;;;-4.76;77.79;101188.56;4208639;28;20240;-69
2022/03/02 04:47:19;;;;;;;82.23;26.43;;;;;;;-4.78;77.91;101189.50;4190090;28;20229;-69
2022/03/02 04:49:45;;;;;;;77.23;27.17;;;;;;;-4.91;78.57;101188.88;4188291;28;21845;-69
2022/03/02 04:52:12;;;;;;;85.97;27.73;;;;;;;-4.89;78.46;101185.38;4198055;28;22679;-70
2022/03/02 04:57:24;;;;;;;75.50;28.43;;;;;;;-4.89;78.50;101182.75;4187745;28;20248;-68
2022/03/02 04:59:50;;;;;;;83.27;27.63;;;;;;;-5.01;79.07;101179.53;4199491;28;26022;-69
2022/03/02 05:02:17;;;;;;;84.17;28.50;;;;;;;-5.08;79.48;101178.81;4202116;28;21178;-68
2022/03/02 05:04:44;;;;;;;90.73;29.47;;;;;;;-5.28;80.22;101181.72;4192899;28;20259;-69
2022/03/02 05:07:10;;;;;;;79.03;27.87;;;;;;;-5.25;80.51;101178.22;4201406;28;21788;-69
2022/03/02 05:09:38;;;;;;;82.33;28.60;;;;;;;-5.16;80.29;101178.06;4209858;28;20233;-71
2022/03/02 05:12:04;;;;;;;86.60;29.00;;;;;;;-5.16;80.23;101171.13;4199669;28;23507;-66
2022/03/02 05:14:31;;;;;;;75.50;27.00;;;;;;;-5.18;80.76;101175.50;4181506;28;21660;-69
2022/03/02 05:16:58;;;;;;;86.77;29.03;;;;;;;-5.27;81.12;101169.63;4193146;28;20438;-68
2022/03/02 05:19:24;;;;;;;88.13;30.43;;;;;;;-5.17;80.65;101171.19;4186242;28;21447;-68
2022/03/02 05:21:51;;;;;;;89.03;29.07;;;;;;;-5.13;80.91;101163.31;4216454;28;22948;-68
2022/03/02 05:24:18;;;;;;;82.73;29.50;;;;;;;-4.99;80.15;101164.78;4204763;28;20240;-68
2022/03/02 05:26:44;;;;;;;87.50;30.03;;;;;;;-5.08;80.41;101165.84;4219030;28;21335;-72
2022/03/02 05:29:11;;;;;;;87.23;28.60;;;;;;;-5.05;79.86;101168.38;4196467;28;20241;-69
2022/03/02 05:31:37;;;;;;;86.00;28.83;;;;;;;-5.07;80.14;101166.69;4196381;28;22357;-68
2022/03/02 05:34:04;;;;;;;90.50;31.20;;;;;;;-5.06;80.56;101164.03;4166633;28;21469;-68
2022/03/02 05:36:30;;;;;;;96.73;30.23;;;;;;;-4.93;79.94;101164.69;4194507;28;21331;-68
2022/03/02 05:38:57;;;;;;;90.43;31.00;;;;;;;-5.03;80.17;101156.22;4217452;28;25486;-66
2022/03/02 05:41:24;;;;;;;98.43;32.87;;;;;;;-5.17;81.15;101159.06;4222553;28;21441;-68
2022/03/02 05:43:52;;;;;;;108.87;33.97;;;;;;;-5.24;81.58;101154.88;4188819;28;22971;-69
2022/03/02 05:46:19;;;;;;;92.57;32.83;;;;;;;-5.15;81.83;101153.81;4229700;28;22346;-70
2022/03/02 05:48:46;;;;;;;86.70;29.57;;;;;;;-5.01;81.67;101158.75;4187106;28;20240;-70
2022/03/02 05:51:13;;;;;;;88.00;30.67;;;;;;;-4.84;81.11;101159.31;4189379;28;20732;-69
2022/03/02 05:53:39;;;;;;;94.47;31.17;;;;;;;-4.86;80.84;101160.25;4198185;28;21805;-69
2022/03/02 05:56:06;;;;;;;87.33;31.77;;;;;;;-4.92;81.32;101156.00;4182427;28;20280;-74
2022/03/02 05:58:33;;;;;;;105.10;32.80;;;;;;;-4.89;81.48;101158.56;4187992;28;20664;-70
2022/03/02 06:01:00;;;;;;;86.97;31.30;;;;;;;-5.04;82.07;101164.88;4214167;28;20240;-68
2022/03/02 06:03:28;;;;;;;87.60;29.97;;;;;;;-4.91;82.04;101153.38;4196117;28;20268;-71
2022/03/02 06:05:55;;;;;;;81.17;30.33;;;;;;;-4.76;81.92;101151.38;4224987;28;24040;-70
2022/03/02 06:08:21;;;;;;;85.97;29.33;;;;;;;-4.83;81.84;101161.00;4206585;28;21730;-71
2022/03/02 06:10:48;;;;;;;96.93;31.03;;;;;;;-4.88;82.37;101152.47;4183839;28;25216;-69
2022/03/02 06:13:15;;;;;;;81.17;30.27;;;;;;;-4.69;81.62;101161.59;4195435;28;20248;-73
2022/03/02 06:15:43;;;;;;;80.13;29.30;;;;;;;-4.54;81.48;101157.84;4208842;28;20731;-72
2022/03/02 06:18:09;;;;;;;96.23;32.23;;;;;;;-4.52;80.87;101165.59;4188387;28;20241;-71
2022/03/02 06:20:36;;;;;;;96.40;32.47;;;;;;;-4.34;80.80;101165.22;4189128;28;20227;-72
2022/03/02 06:23:02;;;;;;;84.17;30.80;;;;;;;-4.20;80.11;101166.69;4253049;28;20292;-78
2022/03/02 06:25:30;;;;;;;92.23;32.17;;;;;;;-4.13;79.79;101169.09;4189743;28;20244;-71
2022/03/02 06:28:01;;;;;;;88.43;31.80;;;;;;;-4.02;79.72;101171.47;4191785;28;20262;-65
2022/03/02 06:30:28;;;;;;;92.27;32.17;;;;;;;-3.92;79.72;101175.56;4232193;28;20866;-62
2022/03/02 06:32:55;;;;;;;94.43;33.83;;;;;;;-3.92;79.38;101161.72;4215449;28;21354;-64
2022/03/02 06:35:21;;;;;;;107.70;33.70;;;;;;;-3.79;79.29;101163.16;4208299;28;20318;-70
2022/03/02 06:37:48;;;;;;;93.43;32.47;;;;;;;-3.67;79.12;101167.22;4204390;28;23142;-66
2022/03/02 06:40:15;;;;;;;97.90;32.43;;;;;;;-3.55;78.86;101160.88;4212009;28;20317;-70
2022/03/02 06:42:59;;;;;;;95.90;31.73;;;;;;;-3.52;78.66;101161.63;4208188;28;20233;-70
2022/03/02 06:45:39;;;;;;;107.53;32.37;;;;;;;-3.38;78.01;101166.50;4217627;28;20230;-69
2022/03/02 06:48:11;;;;;;;96.53;32.07;;;;;;;-3.25;78.33;101159.25;4219420;28;20784;-71
2022/03/02 06:50:39;;;;;;;98.47;33.50;;;;;;;-3.17;77.45;101157.28;4189808;28;21480;-69
2022/03/02 06:53:14;;;;;;;99.03;31.67;;;;;;;-3.05;77.13;101154.34;4236091;28;20247;-70
2022/03/02 06:55:44;;;;;;;100.43;31.67;;;;;;;-2.88;76.09;101155.66;4185761;28;20596;-72
2022/03/02 06:58:12;;;;;;;93.03;31.77;;;;;;;-2.92;75.58;101157.50;4179179;28;20251;-71
2022/03/02 07:00:39;;;;;;;79.17;29.27;;;;;;;-2.83;76.20;101157.25;4191886;28;20238;-72
2022/03/02 07:03:14;;;;;;;83.70;29.80;;;;;;;-2.71;75.25;101150.00;4190841;28;20228;-70
2022/03/02 07:05:41;;;;;;;77.20;28.50;;;;;;;-2.60;74.63;101147.91;4207013;28;20238;-75
2022/03/02 07:08:08;;;;;;;78.60;27.13;;;;;;;-2.49;74.28;101145.88;4213016;28;20333;-71
2022/03/02 07:10:36;;;;;;;78.23;26.20;;;;;;;-2.55;73.58;101146.06;4221665;28;20933;-75
2022/03/02 07:13:04;;;;;;;77.53;25.77;;;;;;;-2.49;72.64;101152.84;4200544;28;21786;-73
2022/03/02 07:15:32;;;;;;;73.43;25.47;;;;;;;-2.28;71.88;101153.97;4189161;28;20237;-72
2022/03/02 07:17:59;;;;;;;75.40;25.90;;;;;;;-2.07;71.56;101153.31;4235454;28;25432;-69
2022/03/02 07:20:29;;;;;;;77.93;27.33;;;;;;;-2.16;71.26;101151.84;4194988;28;20328;-69
2022/03/02 07:22:57;;;;;;;76.33;27.30;;;;;;;-2.05;70.74;101155.88;4238756;28;20419;-73
2022/03/02 07:25:29;;;;;;;74.13;24.50;;;;;;;-1.90;70.71;101150.19;4216297;28;20350;-72
2022/03/02 07:27:56;;;;;;;76.83;24.77;;;;;;;-1.83;69.43;101151.69;4189800;28;20237;-73
2022/03/02 07:30:27;;;;;;;68.87;25.50;;;;;;;-1.78;69.17;101148.94;4203959;28;20320;-70
2022/03/02 07:32:55;;;;;;;74.67;24.53;;;;;;;-1.57;68.31;101155.22;4193448;28;20282;-69
2022/03/02 07:35:23;;;;;;;75.63;25.07;;;;;;;-1.38;67.28;101151.13;4200130;28;25556;-73
2022/03/02 07:37:51;;;;;;;72.87;24.70;;;;;;;-1.24;67.56;101150.66;4229712;28;20252;-70
2022/03/02 07:40:17;;;;;;;71.47;25.43;;;;;;;-1.23;66.63;101144.53;4212547;28;20296;-72
2022/03/02 07:42:45;;;;;;;73.77;27.27;;;;;;;-1.14;66.92;101149.44;4200802;28;20249;-73
2022/03/02 07:45:11;;;;;;;70.07;25.27;;;;;;;-0.89;66.10;101152.06;4232674;28;20294;-74
2022/03/02 07:47:38;;;;;;;64.10;24.20;;;;;;;-0.80;65.84;101140.41;4240679;28;20308;-71
2022/03/02 07:50:05;;;;;;;74.27;25.23;;;;;;;-0.38;65.29;101144.13;4222880;28;21186;-71
2022/03/02 07:52:36;;;;;;;65.70;23.23;;;;;;;0.01;63.68;101146.97;4193430;28;20324;-71
2022/03/02 07:55:09;;;;;;;63.40;21.93;;;;;;;2.21;60.06;101145.28;4226379;28;21061;-72
2022/03/02 07:57:41;;;;;;;65.60;19.80;;;;;;;5.16;50.54;101163.59;4254194;28;20231;-74
2022/03/02 08:00:09;;;;;;;52.70;21.10;;;;;;;8.30;41.20;101176.22;4215534;28;21179;-73
2022/03/02 08:02:40;;;;;;;44.93;17.40;;;;;;;11.39;30.92;101181.88;4234195;28;20270;-78
2022/03/02 08:05:10;;;;;;;41.60;17.27;;;;;;;11.29;28.95;101186.31;4218974;28;21992;-75
2022/03/02 08:07:36;;;;;;;37.67;16.27;;;;;;;13.36;26.74;101196.28;4218282;28;20304;-72
2022/03/02 08:10:06;;;;;;;37.17;16.47;;;;;;;16.15;23.23;101198.91;4238038;28;23257;-70
2022/03/02 08:12:33;;;;;;;41.73;17.27;;;;;;;18.87;20.05;101193.69;4257964;28;20233;-76
2022/03/02 08:15:00;;;;;;;33.93;16.03;;;;;;;20.40;17.41;101197.75;4223969;28;20241;-80
2022/03/02 08:17:26;;;;;;;36.07;16.60;;;;;;;21.55;15.67;101201.31;4196227;28;21947;-72
2022/03/02 08:19:53;;;;;;;36.40;16.43;;;;;;;21.38;15.25;101200.75;4222337;28;20252;-74
2022/03/02 08:22:21;;;;;;;38.03;17.73;;;;;;;22.10;14.75;101196.78;4200367;28;20297;-73
2022/03/02 08:25:07;;;;;;;34.70;16.13;;;;;;;18.54;16.99;101182.25;4211530;28;21235;-74
2022/03/02 08:27:34;;;;;;;38.53;14.97;;;;;;;18.38;17.82;101167.03;4218744;28;23002;-74
2022/03/02 08:30:03;;;;;;;31.20;14.80;;;;;;;20.59;15.74;101190.91;4226366;28;22957;-76
2022/03/02 08:32:31;;;;;;;27.77;13.40;;;;;;;19.49;15.69;101179.09;4200722;28;21333;-73
2022/03/02 08:34:58;;;;;;;29.87;14.23;;;;;;;17.10;17.92;101169.81;4214705;28;20405;-75
2022/03/02 08:37:25;;;;;;;28.63;13.47;;;;;;;17.50;18.14;101170.75;4265391;28;20238;-72
2022/03/02 08:39:52;;;;;;;32.33;14.97;;;;;;;17.96;17.37;101179.06;4284680;28;20690;-72
2022/03/02 08:42:19;;;;;;;24.97;12.73;;;;;;;19.00;16.86;101163.38;4286422;28;20724;-71
2022/03/02 08:44:49;;;;;;;27.67;14.57;;;;;;;20.66;15.63;101168.28;4257890;28;20322;-73
2022/03/02 08:47:16;;;;;;;32.87;14.37;;;;;;;22.89;13.71;101168.19;4264075;28;20296;-73
2022/03/02 08:49:44;;;;;;;28.43;14.47;;;;;;;22.87;13.58;101162.13;4243485;28;24311;-74
2022/03/02 08:52:12;;;;;;;27.13;13.30;;;;;;;23.83;12.65;101167.06;4261881;28;20240;-71
2022/03/02 08:54:44;;;;;;;27.00;13.60;;;;;;;23.71;12.12;101161.41;4272338;28;20247;-71
2022/03/02 08:57:11;;;;;;;25.70;13.17;;;;;;;23.82;12.75;101159.13;4307790;28;20232;-72
2022/03/02 08:59:40;;;;;;;28.80;12.77;;;;;;;24.26;12.26;101158.28;4310588;28;21450;-71
2022/03/02 09:02:08;;;;;;;24.83;11.93;;;;;;;24.15;12.23;101159.81;4270935;28;21803;-71
2022/03/02 09:04:35;;;;;;;28.57;13.27;;;;;;;22.22;13.54;101143.69;4290351;28;20240;-72
2022/03/02 09:07:03;;;;;;;29.37;12.30;;;;;;;21.36;14.69;101129.72;4277211;28;20287;-73
2022/03/02 09:09:32;;;;;;;25.30;12.40;;;;;;;17.99;17.61;101110.53;4268740;28;20330;-71
2022/03/02 09:11:59;;;;;;;24.47;10.80;;;;;;;16.42;20.31;101107.31;4298723;28;21557;-73
2022/03/02 09:14:29;;;;;;;26.70;11.00;;;;;;;13.87;22.98;101082.63;4283927;28;21867;-70
2022/03/02 09:16:56;;;;;;;25.93;11.60;;;;;;;10.72;27.94;101070.44;4254385;28;20797;-71
2022/03/02 09:19:25;;;;;;;29.17;12.73;;;;;;;9.01;31.50;101059.50;4280063;28;20422;-71
2022/03/02 09:21:52;;;;;;;29.63;11.67;;;;;;;8.47;33.55;101054.81;4260734;28;20290;-71
2022/03/02 09:24:19;;;;;;;26.97;11.63;;;;;;;8.17;34.14;101062.28;4245424;28;20238;-73
2022/03/02 09:26:46;;;;;;;34.30;12.03;;;;;;;8.35;34.02;101051.25;4237789;28;20361;-71
2022/03/02 09:29:17;;;;;;;29.97;12.23;;;;;;;8.57;33.59;101051.38;4232285;28;20229;-72
2022/03/02 09:31:49;;;;;;;31.27;13.20;;;;;;;7.91;35.10;101053.59;4217456;28;22030;-72
2022/03/02 09:34:19;;;;;;;31.60;12.00;;;;;;;7.75;35.39;101042.41;4225496;28;21547;-72
2022/03/02 09:36:47;;;;;;;28.23;11.50;;;;;;;8.01;35.26;101038.72;4262574;28;21600;-74
2022/03/02 09:39:15;;;;;;;25.23;11.47;;;;;;;7.56;35.75;101037.63;4228471;28;21678;-73
2022/03/02 09:42:09;;;;;;;28.00;12.60;;;;;;;7.80;36.12;101038.50;4279219;28;20739;-74
2022/03/02 09:44:39;;;;;;;36.57;12.43;;;;;;;7.19;37.06;101030.50;4297093;28;20242;-72
2022/03/02 09:47:09;;;;;;;28.87;11.20;;;;;;;6.46;38.15;101019.72;4241341;28;20989;-72
2022/03/02 09:49:37;;;;;;;27.17;10.40;;;;;;;6.93;37.19;101019.13;4242191;28;20233;-74
2022/03/02 09:52:07;;;;;;;22.30;9.80;;;;;;;6.82;36.89;101023.47;4284208;28;21823;-73
2022/03/02 09:54:36;;;;;;;24.50;10.10;;;;;;;6.65;37.42;101014.91;4223328;28;20316;-74
2022/03/02 09:57:06;;;;;;;26.07;9.40;;;;;;;6.71;37.48;101022.38;4273046;28;21345;-71
2022/03/02 09:59:36;;;;;;;24.03;11.00;;;;;;;6.15;37.97;101010.38;4221795;28;20244;-73
2022/03/02 10:02:06;;;;;;;25.87;10.23;;;;;;;5.53;39.02;101006.44;4221958;28;21106;-72
2022/03/02 10:04:35;;;;;;;22.20;9.77;;;;;;;5.53;39.27;101006.44;4220882;28;20232;-71
2022/03/02 10:10:08;;;;;;;26.43;10.90;;;;;;;5.26;39.80;100995.84;4210510;28;20232;-73
2022/03/02 10:12:35;;;;;;;24.67;10.50;;;;;;;5.68;39.24;100992.22;4257959;28;20232;-74
2022/03/02 10:15:08;;;;;;;27.00;10.70;;;;;;;5.74;39.05;100983.09;4257934;28;20236;-72
2022/03/02 10:17:39;;;;;;;29.20;11.80;;;;;;;5.95;38.58;100985.25;4230334;28;21927;-74
2022/03/02 10:20:14;;;;;;;28.27;11.50;;;;;;;5.94;38.63;100987.06;4274471;28;20243;-72
2022/03/02 10:23:06;;;;;;;27.63;12.00;;;;;;;5.72;39.20;100982.34;4285424;28;20227;-73
2022/03/02 10:26:01;;;;;;;25.30;10.97;;;;;;;6.09;39.50;100974.66;4255404;28;21636;-69
2022/03/02 10:28:42;;;;;;;23.70;10.07;;;;;;;6.31;39.31;100980.16;4302833;28;20235;-70
2022/03/02 10:31:22;;;;;;;20.70;9.60;;;;;;;6.44;38.41;100982.84;4262078;28;21016;-74
2022/03/02 10:33:54;;;;;;;23.33;10.37;;;;;;;6.42;38.43;100970.69;4225644;28;21293;-72
2022/03/02 10:36:25;;;;;;;25.57;10.47;;;;;;;6.69;38.06;100973.19;4225001;28;21263;-71
2022/03/02 10:38:57;;;;;;;22.67;9.30;;;;;;;6.26;38.02;100966.41;4203033;28;20331;-69
2022/03/02 10:41:26;;;;;;;24.73;9.87;;;;;;;6.16;39.36;100962.72;4243834;28;20250;-68
2022/03/02 10:44:05;;;;;;;23.67;10.13;;;;;;;6.49;37.92;100966.66;4279877;28;20821;-73
2022/03/02 10:46:33;;;;;;;19.20;8.87;;;;;;;6.74;36.97;100968.44;4226874;28;20238;-69
2022/03/02 10:49:13;;;;;;;19.40;8.00;;;;;;;6.37;37.03;100963.06;4247057;28;22082;-75
2022/03/02 10:51:41;;;;;;;15.50;7.27;;;;;;;6.48;36.35;100962.31;4240655;28;21244;-69
2022/03/02 10:54:08;;;;;;;21.77;7.83;;;;;;;5.72;37.82;100958.56;4268454;28;20744;-73
2022/03/02 10:56:43;;;;;;;17.87;7.13;;;;;;;5.97;37.51;100955.19;4258149;28;20592;-70
2022/03/02 10:59:16;;;;;;;18.30;7.10;;;;;;;5.90;37.99;100946.78;4257715;28;20235;-71
2022/03/02 11:01:52;;;;;;;20.17;7.40;;;;;;;5.97;37.02;100941.09;4189137;28;20236;-69
2022/03/02 11:04:21;;;;;;;19.23;7.67;;;;;;;6.24;37.67;100938.41;4219712;28;20241;-70
2022/03/02 11:06:51;;;;;;;16.43;7.17;;;;;;;6.49;36.53;100941.06;4209493;28;20324;-69
2022/03/02 11:09:38;;;;;;;21.90;7.87;;;;;;;6.69;36.13;100928.25;4223891;28;20237;-71
2022/03/02 11:12:05;;;;;;;17.33;7.40;;;;;;;6.92;36.09;100926.63;4227689;28;20232;-70
2022/03/02 11:14:32;;;;;;;15.27;6.60;;;;;;;6.74;35.21;100921.69;4241111;28;20368;-70
2022/03/02 11:17:15;;;;;;;16.87;7.40;;;;;;;6.85;35.52;100923.56;4223085;28;20228;-71
2022/03/02 11:19:49;;;;;;;18.00;6.50;;;;;;;6.83;35.80;100927.28;4227570;28;20285;-70
2022/03/02 11:22:19;;;;;;;18.43;7.47;;;;;;;6.32;36.47;100921.09;4297782;28;21024;-67